createdAt,value
2023-04-28T00:01:00.497Z,13.95
2023-04-28T00:03:28.745Z,13.55
2023-04-28T00:05:57.099Z,15.15
2023-04-28T00:08:25.445Z,17.83
2023-04-28T00:10:53.968Z,20.60
2023-04-28T00:13:22.141Z,22.10
2023-04-28T00:15:54.541Z,22.42
2023-04-28T00:18:23.044Z,21.27
2023-04-28T00:20:51.190Z,21.27
2023-04-28T00:23:19.558Z,21.33
2023-04-28T00:25:52.795Z,21.45
2023-04-28T00:28:33.698Z,20.52
2023-04-28T00:31:03.463Z,18.38
2023-04-28T00:33:31.722Z,20.65
2023-04-28T00:36:01.504Z,19.30
2023-04-28T00:38:30.070Z,21.17
2023-04-28T00:40:58.336Z,21.27
2023-04-28T00:43:26.742Z,22.48
2023-04-28T00:45:55.201Z,21.80
2023-04-28T00:48:23.742Z,24.63
2023-04-28T00:50:52.710Z,22.73
2023-04-28T00:53:22.553Z,23.45
2023-04-28T00:55:53.730Z,22.02
2023-04-28T00:58:22.473Z,15.95
2023-04-28T01:00:51.265Z,13.10
2023-04-28T01:03:19.749Z,13.38
2023-04-28T01:05:48.575Z,12.27
2023-04-28T01:08:17.236Z,13.15
2023-04-28T01:10:45.637Z,12.88
2023-04-28T01:13:27.361Z,13.65
2023-04-28T01:15:56.719Z,11.98
2023-04-28T01:18:26.054Z,11.80
2023-04-28T01:20:54.554Z,11.70
2023-04-28T01:23:22.933Z,12.98
2023-04-28T01:25:51.251Z,15.30
2023-04-28T01:28:19.558Z,17.48
2023-04-28T01:30:47.863Z,13.93
2023-04-28T01:33:15.981Z,15.50
2023-04-28T01:35:44.250Z,39.78
2023-04-28T01:38:12.388Z,70.35
2023-04-28T01:40:40.588Z,46.35
2023-04-28T01:43:08.818Z,50.47
2023-04-28T01:45:37.017Z,43.00
2023-04-28T01:48:05.289Z,26.35
2023-04-28T01:50:33.633Z,21.40
2023-04-28T01:53:01.727Z,30.40
2023-04-28T01:55:29.927Z,33.03
2023-04-28T01:57:58.689Z,13.18
2023-04-28T02:00:28.797Z,7.50
2023-04-28T02:02:57.200Z,6.65
2023-04-28T02:05:26.274Z,7.07
2023-04-28T02:07:54.582Z,11.50
2023-04-28T02:10:22.667Z,12.68
2023-04-28T02:12:51.202Z,9.70
2023-04-28T02:15:19.428Z,8.68
2023-04-28T02:17:48.486Z,10.60
2023-04-28T02:20:17.538Z,10.95
2023-04-28T02:22:46.027Z,10.68
2023-04-28T02:25:14.399Z,11.02
2023-04-28T02:27:42.612Z,11.52
2023-04-28T02:30:11.196Z,21.02
2023-04-28T02:32:39.390Z,18.88
2023-04-28T02:35:08.380Z,13.32
2023-04-28T02:37:36.923Z,9.85
2023-04-28T02:40:05.390Z,7.13
2023-04-28T02:42:33.843Z,10.65
2023-04-28T02:45:01.993Z,12.80
2023-04-28T02:47:30.312Z,10.32
2023-04-28T02:49:58.555Z,9.85
2023-04-28T02:52:27.364Z,8.50
2023-04-28T02:54:55.497Z,7.28
2023-04-28T02:57:24.483Z,6.30
2023-04-28T02:59:52.694Z,5.28
2023-04-28T03:02:21.108Z,6.00
2023-04-28T03:04:49.458Z,4.65
2023-04-28T03:07:17.738Z,6.05
2023-04-28T03:09:46.594Z,9.27
2023-04-28T03:12:15.157Z,6.80
2023-04-28T03:14:43.280Z,8.43
2023-04-28T03:17:11.569Z,13.02
2023-04-28T03:19:40.028Z,12.00
2023-04-28T03:22:08.397Z,11.70
2023-04-28T03:24:36.533Z,9.70
2023-04-28T03:27:05.576Z,7.80
2023-04-28T03:29:33.800Z,5.57
2023-04-28T03:32:02.601Z,4.40
2023-04-28T03:34:30.980Z,4.72
2023-04-28T03:36:59.386Z,7.28
2023-04-28T03:39:31.023Z,12.40
2023-04-28T03:41:59.573Z,10.52
2023-04-28T03:44:59.554Z,8.25
2023-04-28T03:47:29.980Z,6.28
2023-04-28T03:49:58.536Z,6.88
2023-04-28T03:52:26.904Z,6.35
2023-04-28T03:54:56.140Z,7.32
2023-04-28T03:57:24.722Z,7.53
2023-04-28T03:59:56.097Z,7.13
2023-04-28T04:02:24.586Z,6.88
2023-04-28T04:04:53.025Z,4.88
2023-04-28T04:07:23.288Z,6.03
2023-04-28T04:09:51.573Z,5.82
2023-04-28T04:12:20.032Z,5.97
2023-04-28T04:14:48.167Z,4.85
2023-04-28T04:17:19.311Z,6.40
2023-04-28T04:19:47.583Z,6.18
2023-04-28T04:22:16.610Z,5.65
2023-04-28T04:24:44.885Z,5.53
2023-04-28T04:27:13.142Z,7.07
2023-04-28T04:29:42.720Z,10.90
2023-04-28T04:32:15.698Z,8.07
2023-04-28T04:34:44.256Z,4.95
2023-04-28T04:37:12.934Z,5.68
2023-04-28T04:39:53.754Z,4.82
2023-04-28T04:42:24.996Z,7.22
2023-04-28T04:45:06.973Z,29.92
2023-04-28T04:47:35.337Z,12.85
2023-04-28T04:50:03.642Z,7.70
2023-04-28T04:52:32.066Z,5.82
2023-04-28T04:55:00.755Z,5.40
2023-04-28T04:57:30.450Z,8.23
2023-04-28T05:00:18.884Z,5.20
2023-04-28T05:02:47.772Z,6.15
2023-04-28T05:05:21.698Z,5.72
2023-04-28T05:08:02.908Z,5.78
2023-04-28T05:10:31.085Z,10.98
2023-04-28T05:13:00.566Z,13.65
2023-04-28T05:15:29.325Z,19.67
2023-04-28T05:18:23.542Z,19.17
2023-04-28T05:20:51.831Z,14.77
2023-04-28T05:23:20.829Z,7.13
2023-04-28T05:25:49.180Z,8.43
2023-04-28T05:28:18.614Z,6.20
2023-04-28T05:30:47.996Z,4.70
2023-04-28T05:33:16.868Z,8.50
2023-04-28T05:35:45.359Z,6.78
2023-04-28T05:38:13.558Z,5.45
2023-04-28T05:40:44.154Z,5.43
2023-04-28T05:43:13.699Z,8.20
2023-04-28T05:45:42.853Z,33.65
2023-04-28T05:48:11.453Z,36.58
2023-04-28T05:50:41.654Z,48.03
2023-04-28T05:53:11.679Z,40.47
2023-04-28T05:55:40.297Z,35.67
2023-04-28T05:58:08.712Z,11.43
2023-04-28T06:00:36.951Z,10.68
2023-04-28T06:03:05.292Z,5.25
2023-04-28T06:05:34.382Z,6.10
2023-04-28T06:08:02.736Z,7.28
2023-04-28T06:10:32.497Z,10.00
2023-04-28T06:13:00.641Z,14.02
2023-04-28T06:15:28.928Z,12.10
2023-04-28T06:17:57.410Z,11.15
2023-04-28T06:20:25.854Z,10.10
2023-04-28T06:22:55.817Z,9.48
2023-04-28T06:25:24.327Z,9.63
2023-04-28T06:27:52.895Z,12.55
2023-04-28T06:30:23.178Z,9.68
2023-04-28T06:32:51.665Z,10.75
2023-04-28T06:35:20.050Z,10.93
2023-04-28T06:37:48.116Z,8.57
2023-04-28T06:40:16.490Z,7.10
2023-04-28T06:42:52.463Z,7.20
2023-04-28T06:45:30.729Z,7.13
2023-04-28T06:47:59.255Z,16.42
2023-04-28T06:50:27.628Z,13.15
2023-04-28T06:52:55.712Z,14.00
2023-04-28T06:55:23.915Z,20.23
2023-04-28T06:57:52.454Z,20.90
2023-04-28T07:00:20.713Z,23.27
2023-04-28T07:02:49.241Z,22.92
2023-04-28T07:05:17.649Z,25.70
2023-04-28T07:07:46.376Z,25.33
2023-04-28T07:10:14.696Z,25.38
2023-04-28T07:12:42.947Z,24.30
2023-04-28T07:15:11.693Z,22.70
2023-04-28T07:17:40.174Z,22.80
2023-04-28T07:20:08.993Z,20.90
2023-04-28T07:22:37.313Z,22.77
2023-04-28T07:25:05.923Z,20.00
2023-04-28T07:27:34.268Z,20.10
2023-04-28T07:30:11.608Z,18.92
2023-04-28T07:32:47.323Z,19.35
2023-04-28T07:35:15.728Z,16.67
2023-04-28T07:37:44.101Z,17.13
2023-04-28T07:40:12.431Z,16.20
2023-04-28T07:42:40.694Z,18.08
2023-04-28T07:45:09.540Z,15.00
2023-04-28T07:47:38.386Z,14.70
2023-04-28T07:50:07.512Z,14.55
2023-04-28T07:52:35.812Z,13.40
2023-04-28T07:55:04.221Z,13.27
2023-04-28T07:57:32.379Z,13.77
2023-04-28T08:00:00.631Z,13.65
2023-04-28T08:02:29.070Z,13.00
2023-04-28T08:04:57.741Z,13.35
2023-04-28T08:07:26.095Z,11.93
2023-04-28T08:09:54.152Z,13.20
2023-04-28T08:12:22.316Z,13.20
2023-04-28T08:14:50.648Z,11.20
2023-04-28T08:17:19.035Z,13.20
2023-04-28T08:19:47.304Z,13.20
2023-04-28T08:22:15.701Z,13.32
2023-04-28T08:24:44.044Z,12.20
2023-04-28T08:27:12.353Z,13.98
2023-04-28T08:29:40.588Z,14.43
2023-04-28T08:32:08.944Z,15.48
2023-04-28T08:34:37.309Z,20.13
2023-04-28T08:37:05.475Z,22.20
2023-04-28T08:39:33.732Z,21.02
2023-04-28T08:42:04.674Z,17.38
2023-04-28T08:44:39.402Z,15.43
2023-04-28T08:47:14.843Z,14.55
2023-04-28T08:49:44.767Z,14.82
2023-04-28T08:52:17.398Z,15.57
2023-04-28T08:54:47.544Z,15.25
2023-04-28T08:57:16.039Z,13.27
2023-04-28T08:59:44.392Z,12.93
2023-04-28T09:02:13.006Z,13.52
2023-04-28T09:04:41.464Z,14.35
2023-04-28T09:07:13.098Z,14.35
2023-04-28T09:09:43.644Z,16.05
2023-04-28T09:12:12.150Z,18.98
2023-04-28T09:14:40.647Z,15.80
2023-04-28T09:17:13.108Z,19.08
2023-04-28T09:19:42.064Z,15.27
2023-04-28T09:22:25.508Z,15.75
2023-04-28T09:24:55.407Z,19.10
2023-04-28T09:27:29.975Z,22.88
2023-04-28T09:29:58.269Z,18.90
2023-04-28T09:32:26.575Z,18.20
2023-04-28T09:34:55.731Z,16.67
2023-04-28T09:37:28.740Z,15.52
2023-04-28T09:39:57.556Z,13.40
2023-04-28T09:42:42.336Z,10.52
2023-04-28T09:45:15.871Z,7.82
2023-04-28T09:47:47.556Z,6.28
2023-04-28T09:50:19.067Z,3.45
2023-04-28T09:52:58.095Z,5.35
2023-04-28T09:55:27.112Z,5.18
2023-04-28T09:57:56.109Z,6.47
2023-04-28T10:00:24.739Z,7.15
2023-04-28T10:02:58.216Z,7.18
2023-04-28T10:05:26.936Z,4.90
2023-04-28T10:07:55.798Z,15.50
2023-04-28T10:10:24.078Z,4.75
2023-04-28T10:12:52.564Z,5.05
2023-04-28T10:15:21.794Z,6.53
2023-04-28T10:17:52.519Z,14.30
2023-04-28T10:20:21.366Z,8.07
2023-04-28T10:23:26.799Z,7.35
2023-04-28T10:25:58.130Z,8.63
2023-04-28T10:28:27.584Z,14.50
2023-04-28T10:31:16.882Z,5.63
2023-04-28T10:33:45.550Z,5.28
2023-04-28T10:36:52.703Z,5.65
2023-04-28T10:39:21.207Z,5.10
2023-04-28T10:41:49.593Z,4.50
2023-04-28T10:44:48.940Z,11.77
2023-04-28T10:47:17.327Z,13.15
2023-04-28T10:49:57.785Z,18.42
2023-04-28T10:52:50.381Z,6.15
2023-04-28T10:55:34.525Z,7.63
2023-04-28T10:58:35.242Z,4.50
2023-04-28T11:01:38.732Z,7.65
2023-04-28T11:04:08.661Z,5.20
2023-04-28T11:06:37.928Z,6.65
2023-04-28T11:09:18.339Z,4.88
2023-04-28T11:11:55.880Z,5.43
2023-04-28T11:14:24.356Z,4.93
2023-04-28T11:16:56.831Z,6.85
2023-04-28T11:19:27.468Z,6.90
2023-04-28T11:21:57.805Z,5.47
2023-04-28T11:24:27.066Z,8.85
2023-04-28T11:26:57.213Z,10.48
2023-04-28T11:29:39.620Z,4.63
2023-04-28T11:32:10.305Z,7.53
2023-04-28T11:34:38.834Z,10.65
2023-04-28T11:37:07.020Z,13.52
2023-04-28T11:39:35.934Z,17.50
2023-04-28T11:42:11.072Z,8.55
2023-04-28T11:44:39.666Z,4.32
2023-04-28T11:47:08.375Z,3.80
2023-04-28T11:49:45.200Z,4.22
2023-04-28T11:52:15.356Z,4.57
2023-04-28T11:54:43.812Z,7.40
2023-04-28T11:57:19.475Z,7.15
2023-04-28T11:59:48.643Z,6.32
2023-04-28T12:02:24.996Z,14.40
2023-04-28T12:04:53.388Z,8.48
2023-04-28T12:07:22.807Z,7.18
2023-04-28T12:10:14.915Z,6.20
2023-04-28T12:12:50.999Z,4.00
2023-04-28T12:15:22.962Z,11.73
2023-04-28T12:17:51.785Z,26.02
2023-04-28T12:20:39.980Z,16.05
2023-04-28T12:23:08.726Z,10.38
2023-04-28T12:25:47.006Z,14.48
2023-04-28T12:28:15.232Z,10.82
2023-04-28T12:30:43.485Z,9.18
2023-04-28T12:33:28.488Z,9.20
2023-04-28T12:35:59.705Z,5.80
2023-04-28T12:38:31.364Z,4.28
2023-04-28T12:41:00.280Z,5.65
2023-04-28T12:43:28.818Z,6.55
2023-04-28T12:45:57.071Z,9.18
2023-04-28T12:48:25.531Z,6.82
2023-04-28T12:50:53.923Z,5.68
2023-04-28T12:53:22.102Z,8.43
2023-04-28T12:55:50.317Z,7.97
2023-04-28T12:58:18.533Z,7.05
2023-04-28T13:00:46.718Z,4.25
2023-04-28T13:03:15.340Z,6.63
2023-04-28T13:05:43.523Z,5.50
2023-04-28T13:08:11.787Z,6.18
2023-04-28T13:10:40.998Z,4.60
2023-04-28T13:13:09.163Z,2.78
2023-04-28T13:15:38.795Z,24.33
2023-04-28T13:18:07.284Z,3.03
2023-04-28T13:20:35.652Z,12.88
2023-04-28T13:23:04.043Z,2.83
2023-04-28T13:25:32.341Z,5.22
2023-04-28T13:28:03.696Z,4.30
2023-04-28T13:30:35.119Z,6.28
2023-04-28T13:33:03.525Z,6.68
2023-04-28T13:35:31.710Z,5.82
2023-04-28T13:38:00.065Z,3.67
2023-04-28T13:40:29.254Z,5.97
2023-04-28T13:42:58.913Z,9.30
2023-04-28T13:45:27.211Z,6.10
2023-04-28T13:47:59.032Z,5.35
2023-04-28T13:50:28.180Z,6.97
2023-04-28T13:52:56.398Z,6.38
2023-04-28T13:55:24.888Z,3.47
2023-04-28T13:57:53.233Z,6.20
2023-04-28T14:00:21.430Z,6.13
2023-04-28T14:02:50.000Z,5.53
2023-04-28T14:05:18.321Z,6.00
2023-04-28T14:07:46.752Z,3.38
2023-04-28T14:10:14.913Z,4.28
2023-04-28T14:12:43.096Z,3.58
2023-04-28T14:15:11.593Z,4.13
2023-04-28T14:17:39.732Z,4.20
2023-04-28T14:20:14.051Z,4.57
2023-04-28T14:22:42.443Z,7.68
2023-04-28T14:25:10.885Z,7.78
2023-04-28T14:27:39.118Z,7.78
2023-04-28T14:30:08.030Z,7.38
2023-04-28T14:32:39.177Z,6.65
2023-04-28T14:37:36.366Z,11.57
2023-04-28T14:40:05.069Z,7.00
2023-04-28T14:43:43.917Z,5.38
2023-04-28T14:46:12.286Z,5.18
2023-04-28T14:48:40.557Z,6.28
2023-04-28T14:51:08.833Z,4.97
2023-04-28T14:53:38.312Z,5.90
2023-04-28T14:56:17.860Z,4.82
2023-04-28T15:00:31.648Z,6.15
2023-04-28T15:03:00.111Z,7.10
2023-04-28T15:05:28.342Z,7.43
2023-04-28T15:07:56.577Z,7.13
2023-04-28T15:10:25.193Z,7.43
2023-04-28T15:12:53.279Z,6.60
2023-04-28T15:15:21.783Z,9.13
2023-04-28T15:17:50.019Z,9.73
2023-04-28T15:20:18.380Z,11.52
2023-04-28T15:22:46.520Z,11.77
2023-04-28T15:25:17.805Z,10.10
2023-04-28T15:27:48.253Z,9.13
2023-04-28T15:30:17.464Z,9.02
2023-04-28T15:32:45.898Z,7.90
2023-04-28T15:35:14.086Z,8.38
2023-04-28T15:37:44.736Z,8.18
2023-04-28T15:40:16.471Z,9.27
2023-04-28T15:42:48.642Z,9.07
2023-04-28T15:47:46.810Z,12.88
2023-04-28T15:50:16.487Z,12.93
2023-04-28T15:52:45.665Z,16.05
2023-04-28T15:55:17.755Z,13.02
2023-04-28T15:57:47.123Z,15.27
2023-04-28T16:00:16.571Z,17.20
2023-04-28T16:02:45.821Z,15.20
2023-04-28T16:05:14.794Z,13.52
2023-04-28T16:07:43.041Z,13.93
2023-04-28T16:10:13.989Z,12.45
2023-04-28T16:12:43.210Z,13.63
2023-04-28T16:15:13.403Z,14.65
2023-04-28T16:17:42.405Z,19.45
2023-04-28T16:20:13.718Z,19.88
2023-04-28T16:22:42.402Z,19.15
2023-04-28T16:25:12.256Z,18.58
2023-04-28T16:27:41.546Z,17.02
2023-04-28T16:30:10.222Z,18.30
2023-04-28T16:32:38.775Z,16.25
2023-04-28T16:35:07.486Z,17.63
2023-04-28T16:37:35.944Z,14.75
2023-04-28T16:40:04.228Z,13.98
2023-04-28T16:42:32.340Z,14.02
2023-04-28T16:45:00.615Z,14.43
2023-04-28T16:47:28.978Z,14.82
2023-04-28T16:49:57.438Z,14.43
2023-04-28T16:52:26.613Z,16.52
2023-04-28T16:54:54.730Z,27.52
2023-04-28T16:57:23.257Z,15.98
2023-04-28T16:59:51.892Z,10.80
2023-04-28T17:02:20.460Z,11.27
2023-04-28T17:04:48.769Z,11.55
2023-04-28T17:07:17.023Z,10.68
2023-04-28T17:09:45.197Z,12.13
2023-04-28T17:12:13.444Z,14.50
2023-04-28T17:14:41.721Z,14.40
2023-04-28T17:17:10.168Z,16.48
2023-04-28T17:19:39.817Z,16.65
2023-04-28T17:22:08.334Z,16.15
2023-04-28T17:24:36.621Z,13.27
2023-04-28T17:27:04.885Z,15.35
2023-04-28T17:29:33.079Z,13.63
2023-04-28T17:32:01.232Z,11.98
2023-04-28T17:34:29.409Z,13.73
2023-04-28T17:36:57.654Z,13.52
2023-04-28T17:39:26.044Z,14.90
2023-04-28T17:41:54.267Z,16.92
2023-04-28T17:44:22.474Z,9.35
2023-04-28T17:46:50.833Z,7.82
2023-04-28T17:49:19.123Z,7.70
2023-04-28T17:51:47.318Z,8.55
2023-04-28T17:54:15.648Z,7.10
2023-04-28T17:56:43.913Z,7.20
2023-04-28T17:59:12.024Z,8.00
2023-04-28T18:01:40.486Z,8.70
2023-04-28T18:04:08.894Z,7.80
2023-04-28T18:06:37.232Z,8.85
2023-04-28T18:09:05.480Z,6.63
2023-04-28T18:11:34.672Z,6.72
2023-04-28T18:14:02.914Z,8.40
2023-04-28T18:16:31.259Z,15.20
2023-04-28T18:18:59.633Z,11.80
2023-04-28T18:21:27.727Z,8.52
2023-04-28T18:23:55.865Z,11.88
2023-04-28T18:26:24.308Z,10.57
2023-04-28T18:28:52.407Z,7.78
2023-04-28T18:31:20.692Z,9.32
2023-04-28T18:33:48.901Z,9.85
2023-04-28T18:36:17.026Z,10.52
2023-04-28T18:38:45.289Z,8.77
2023-04-28T18:41:18.790Z,13.73
2023-04-28T18:43:47.303Z,14.40
2023-04-28T18:46:15.550Z,22.27
2023-04-28T18:48:43.793Z,16.65
2023-04-28T18:51:12.083Z,11.10
2023-04-28T18:53:40.517Z,9.52
2023-04-28T18:56:08.601Z,8.82
2023-04-28T18:58:36.899Z,7.13
2023-04-28T19:01:05.414Z,5.88
2023-04-28T19:03:34.168Z,6.55
2023-04-28T19:06:02.476Z,7.00
2023-04-28T19:08:30.706Z,8.82
2023-04-28T19:10:59.481Z,9.50
2023-04-28T19:13:27.988Z,11.55
2023-04-28T19:15:56.150Z,12.13
2023-04-28T19:18:24.382Z,20.85
2023-04-28T19:21:02.949Z,23.40
2023-04-28T19:23:31.985Z,19.67
2023-04-28T19:26:01.248Z,11.20
2023-04-28T19:28:29.355Z,9.90
2023-04-28T19:30:58.469Z,8.75
2023-04-28T19:33:28.444Z,9.32
2023-04-28T19:35:57.047Z,10.40
2023-04-28T19:38:25.534Z,7.38
2023-04-28T19:41:03.013Z,6.63
2023-04-28T19:43:31.367Z,8.40
2023-04-28T19:45:59.537Z,7.82
2023-04-28T19:48:27.873Z,8.65
2023-04-28T19:50:56.114Z,9.05
2023-04-28T19:53:24.201Z,8.55
2023-04-28T19:55:56.472Z,9.00
2023-04-28T19:58:24.889Z,8.75
2023-04-28T20:00:53.300Z,10.75
2023-04-28T20:03:21.824Z,9.68
2023-04-28T20:05:50.303Z,8.73
2023-04-28T20:08:18.754Z,10.23
2023-04-28T20:10:47.205Z,10.00
2023-04-28T20:13:16.048Z,9.15
2023-04-28T20:15:44.408Z,8.05
2023-04-28T20:18:12.851Z,6.47
2023-04-28T20:20:41.183Z,6.90
2023-04-28T20:23:09.550Z,6.88
2023-04-28T20:25:38.505Z,7.53
2023-04-28T20:28:06.807Z,7.10
2023-04-28T20:30:34.983Z,6.68
2023-04-28T20:33:03.280Z,6.97
2023-04-28T20:35:31.597Z,7.95
2023-04-28T20:37:59.932Z,6.97
2023-04-28T20:40:28.379Z,7.38
2023-04-28T20:42:56.458Z,7.10
2023-04-28T20:45:24.671Z,7.63
2023-04-28T20:47:54.476Z,6.93
2023-04-28T20:50:24.409Z,7.50
2023-04-28T20:52:52.754Z,9.25
2023-04-28T20:55:21.027Z,9.30
2023-04-28T20:57:49.451Z,11.13
2023-04-28T21:00:17.788Z,10.65
2023-04-28T21:02:46.464Z,9.77
2023-04-28T21:05:14.714Z,23.20
2023-04-28T21:07:43.081Z,37.25
2023-04-28T21:10:14.378Z,37.22
2023-04-28T21:12:42.697Z,41.78
2023-04-28T21:15:11.346Z,36.63
2023-04-28T21:17:39.673Z,28.70
2023-04-28T21:20:08.518Z,19.58
2023-04-28T21:22:36.779Z,15.25
2023-04-28T21:25:05.246Z,12.82
2023-04-28T21:27:33.631Z,11.20
2023-04-28T21:30:02.061Z,12.30
2023-04-28T21:32:30.270Z,10.82
2023-04-28T21:34:58.610Z,9.80
2023-04-28T21:37:26.895Z,9.70
2023-04-28T21:39:57.345Z,13.18
2023-04-28T21:42:25.786Z,11.25
2023-04-28T21:44:54.020Z,11.18
2023-04-28T21:47:22.243Z,12.48
2023-04-28T21:49:50.682Z,12.95
2023-04-28T21:52:19.118Z,15.75
2023-04-28T21:54:47.229Z,18.23
2023-04-28T21:57:15.395Z,17.65
2023-04-28T21:59:43.749Z,16.58
2023-04-28T22:02:13.206Z,15.93
2023-04-28T22:04:42.114Z,11.00
2023-04-28T22:07:10.808Z,12.13
2023-04-28T22:09:38.951Z,12.90
2023-04-28T22:12:07.299Z,11.90
2023-04-28T22:14:41.082Z,8.85
2023-04-28T22:17:10.078Z,8.55
2023-04-28T22:19:38.273Z,7.35
2023-04-28T22:22:06.454Z,6.55
2023-04-28T22:24:35.142Z,7.80
2023-04-28T22:27:03.231Z,6.75
2023-04-28T22:29:31.504Z,7.75
2023-04-28T22:31:59.832Z,7.30
2023-04-28T22:34:27.931Z,7.47
2023-04-28T22:36:56.254Z,7.22
2023-04-28T22:39:24.655Z,8.32
2023-04-28T22:41:53.079Z,8.13
2023-04-28T22:44:21.355Z,8.18
2023-04-28T22:46:50.066Z,8.95
2023-04-28T22:49:18.328Z,8.07
2023-04-28T22:51:46.522Z,7.93
2023-04-28T22:54:14.888Z,8.88
2023-04-28T22:56:43.069Z,11.05
2023-04-28T22:59:11.373Z,7.47
2023-04-28T23:01:39.689Z,5.53
2023-04-28T23:04:08.251Z,4.75
2023-04-28T23:06:36.900Z,4.97
2023-04-28T23:09:05.118Z,5.13
2023-04-28T23:11:33.416Z,10.82
2023-04-28T23:14:01.858Z,14.07
2023-04-28T23:16:29.953Z,17.15
2023-04-28T23:18:58.316Z,22.20
2023-04-28T23:21:26.614Z,22.77
2023-04-28T23:23:54.835Z,22.15
2023-04-28T23:26:23.134Z,23.05
2023-04-28T23:28:52.429Z,20.52
2023-04-28T23:31:21.285Z,23.80
2023-04-28T23:33:49.503Z,22.23
2023-04-28T23:36:17.954Z,21.73
2023-04-28T23:38:46.168Z,22.67
2023-04-28T23:41:14.325Z,21.83
2023-04-28T23:43:42.726Z,21.08
2023-04-28T23:46:10.884Z,17.77
2023-04-28T23:48:39.050Z,14.45
2023-04-28T23:51:07.355Z,15.43
2023-04-28T23:53:35.432Z,11.55
2023-04-28T23:56:03.735Z,8.25
2023-04-28T23:58:32.197Z,7.45
